createdAt,value
2023-03-03T00:01:01.606Z,18.23
2023-03-03T00:03:36.664Z,17.70
2023-03-03T00:06:12.597Z,17.43
2023-03-03T00:08:41.077Z,18.27
2023-03-03T00:11:15.597Z,18.07
2023-03-03T00:13:55.487Z,19.17
2023-03-03T00:16:43.586Z,18.17
2023-03-03T00:19:17.979Z,18.13
2023-03-03T00:21:57.651Z,17.90
2023-03-03T00:24:43.622Z,19.33
2023-03-03T00:27:36.610Z,18.03
2023-03-03T00:30:23.616Z,17.03
2023-03-03T00:33:02.611Z,19.07
2023-03-03T00:35:41.631Z,19.10
2023-03-03T00:38:23.621Z,18.53
2023-03-03T00:40:58.643Z,18.30
2023-03-03T00:43:34.317Z,17.80
2023-03-03T00:46:15.657Z,18.70
2023-03-03T00:48:50.601Z,17.03
2023-03-03T00:51:39.672Z,17.20
2023-03-03T00:54:13.930Z,20.07
2023-03-03T00:56:47.639Z,18.33
2023-03-03T00:59:14.931Z,18.80
2023-03-03T01:01:49.644Z,19.60
2023-03-03T01:04:23.615Z,20.10
2023-03-03T01:06:57.666Z,19.87
2023-03-03T01:09:25.104Z,20.33
2023-03-03T01:11:59.603Z,19.37
2023-03-03T01:14:33.674Z,18.40
2023-03-03T01:17:07.680Z,20.57
2023-03-03T01:19:35.129Z,18.23
2023-03-03T01:22:09.672Z,19.03
2023-03-03T01:24:43.629Z,20.03
2023-03-03T01:27:17.656Z,19.30
2023-03-03T01:29:45.637Z,20.87
2023-03-03T01:32:19.715Z,19.50
2023-03-03T01:34:47.200Z,20.50
2023-03-03T01:37:20.596Z,21.47
2023-03-03T01:40:01.637Z,21.87
2023-03-03T01:42:36.608Z,20.93
2023-03-03T01:45:28.290Z,21.57
2023-03-03T01:48:25.628Z,19.00
2023-03-03T01:50:57.670Z,22.70
2023-03-03T01:53:52.675Z,21.80
2023-03-03T01:56:27.617Z,19.70
2023-03-03T01:59:11.309Z,20.73
2023-03-03T02:01:45.678Z,22.80
2023-03-03T02:04:19.807Z,21.07
2023-03-03T02:07:00.606Z,22.00
2023-03-03T02:09:40.622Z,23.73
2023-03-03T02:12:19.651Z,22.07
2023-03-03T02:14:53.669Z,21.57
2023-03-03T02:17:28.600Z,23.47
2023-03-03T02:20:14.454Z,22.43
2023-03-03T02:23:06.614Z,22.47
2023-03-03T02:26:03.614Z,22.97
2023-03-03T02:28:40.612Z,23.10
2023-03-03T02:31:19.665Z,24.33
2023-03-03T02:33:56.642Z,23.33
2023-03-03T02:36:39.676Z,24.33
2023-03-03T02:39:24.752Z,25.83
2023-03-03T02:42:13.601Z,23.33
2023-03-03T02:44:47.675Z,24.30
2023-03-03T02:47:15.147Z,26.13
2023-03-03T02:49:49.622Z,23.70
2023-03-03T02:52:19.092Z,25.37
2023-03-03T02:54:52.680Z,24.87
2023-03-03T02:57:26.658Z,25.50
2023-03-03T03:00:00.650Z,24.17
2023-03-03T03:02:34.714Z,25.90
2023-03-03T03:05:09.043Z,24.47
2023-03-03T03:07:42.688Z,26.03
2023-03-03T03:10:11.296Z,26.43
2023-03-03T03:12:45.691Z,26.30
2023-03-03T03:15:19.636Z,26.20
2023-03-03T03:17:53.644Z,24.10
2023-03-03T03:20:21.146Z,24.90
2023-03-03T03:22:55.632Z,26.07
2023-03-03T03:25:23.203Z,24.93
2023-03-03T03:27:58.633Z,24.27
2023-03-03T03:30:26.330Z,24.67
2023-03-03T03:33:00.670Z,24.77
2023-03-03T03:35:28.217Z,25.43
2023-03-03T03:38:02.646Z,27.50
2023-03-03T03:40:30.064Z,27.00
2023-03-03T03:43:03.630Z,26.47
2023-03-03T03:45:31.169Z,28.17
2023-03-03T03:48:06.614Z,25.90
2023-03-03T03:50:40.643Z,27.97
2023-03-03T03:53:14.743Z,26.37
2023-03-03T03:55:42.122Z,26.77
2023-03-03T03:58:18.691Z,27.47
2023-03-03T04:00:53.650Z,25.77
2023-03-03T04:03:34.668Z,28.47
2023-03-03T04:06:08.609Z,28.37
2023-03-03T04:08:42.713Z,28.53
2023-03-03T04:11:16.654Z,28.53
2023-03-03T04:13:50.693Z,26.90
2023-03-03T04:16:18.107Z,28.30
2023-03-03T04:18:52.689Z,28.43
2023-03-03T04:21:26.616Z,28.63
2023-03-03T04:24:00.694Z,25.97
2023-03-03T04:26:35.671Z,27.57
2023-03-03T04:29:09.723Z,27.83
2023-03-03T04:31:37.147Z,28.20
2023-03-03T04:34:10.619Z,26.27
2023-03-03T04:36:44.706Z,25.57
2023-03-03T04:39:18.703Z,26.43
2023-03-03T04:41:46.159Z,25.10
2023-03-03T04:44:19.668Z,25.50
2023-03-03T04:46:53.674Z,25.30
2023-03-03T04:49:21.948Z,23.30
2023-03-03T04:51:49.942Z,24.27
2023-03-03T04:54:23.705Z,24.63
2023-03-03T04:56:57.644Z,24.03
2023-03-03T04:59:31.652Z,23.70
2023-03-03T05:02:19.659Z,23.67
2023-03-03T05:04:53.706Z,24.93
2023-03-03T05:07:27.678Z,22.93
2023-03-03T05:09:54.941Z,23.50
2023-03-03T05:12:28.661Z,23.27
2023-03-03T05:15:02.954Z,24.43
2023-03-03T05:17:36.640Z,23.27
2023-03-03T05:20:12.703Z,23.90
2023-03-03T05:22:46.759Z,23.00
2023-03-03T05:25:20.664Z,23.60
2023-03-03T05:27:47.948Z,24.13
2023-03-03T05:30:22.662Z,23.33
2023-03-03T05:32:56.663Z,24.37
2023-03-03T05:35:30.701Z,22.90
2023-03-03T05:38:07.657Z,23.20
2023-03-03T05:40:41.745Z,22.23
2023-03-03T05:43:15.704Z,21.00
2023-03-03T05:45:43.068Z,23.33
2023-03-03T05:48:16.698Z,25.50
2023-03-03T05:50:50.659Z,24.93
2023-03-03T05:53:24.672Z,23.67
2023-03-03T05:55:52.548Z,21.17
2023-03-03T05:58:26.620Z,23.83
2023-03-03T06:01:00.680Z,24.30
2023-03-03T06:03:34.741Z,24.20
2023-03-03T06:06:15.711Z,22.63
2023-03-03T06:08:43.606Z,21.60
2023-03-03T06:11:19.681Z,22.43
2023-03-03T06:13:53.709Z,19.03
2023-03-03T06:16:21.389Z,18.70
2023-03-03T06:18:55.696Z,19.60
2023-03-03T06:21:23.219Z,20.37
2023-03-03T06:23:57.687Z,20.73
2023-03-03T06:26:25.396Z,22.00
2023-03-03T06:29:01.740Z,22.03
2023-03-03T06:31:29.473Z,24.17
2023-03-03T06:34:03.669Z,24.07
2023-03-03T06:36:31.218Z,26.20
2023-03-03T06:39:05.727Z,23.30
2023-03-03T06:41:33.397Z,25.83
2023-03-03T06:44:07.671Z,23.83
2023-03-03T06:46:35.289Z,24.80
2023-03-03T06:49:09.691Z,24.37
2023-03-03T06:51:40.011Z,23.33
2023-03-03T06:54:27.748Z,25.63
2023-03-03T06:57:01.026Z,26.13
2023-03-03T06:59:35.677Z,26.17
2023-03-03T07:02:17.732Z,26.43
2023-03-03T07:04:59.771Z,25.13
2023-03-03T07:07:27.612Z,26.73
2023-03-03T07:10:03.638Z,25.80
2023-03-03T07:12:37.707Z,25.70
2023-03-03T07:15:31.956Z,26.23
2023-03-03T07:18:06.689Z,25.93
2023-03-03T07:20:44.675Z,23.57
2023-03-03T07:23:24.376Z,20.63
2023-03-03T07:25:58.659Z,20.10
2023-03-03T07:28:32.939Z,28.00
2023-03-03T07:31:06.782Z,22.23
2023-03-03T07:33:51.681Z,23.57
2023-03-03T07:36:36.668Z,22.67
2023-03-03T07:39:37.213Z,20.57
2023-03-03T07:42:27.863Z,24.17
2023-03-03T07:45:04.675Z,24.27
2023-03-03T07:47:37.152Z,22.00
2023-03-03T07:50:25.760Z,20.53
2023-03-03T07:53:06.703Z,22.63
2023-03-03T07:55:35.664Z,20.30
2023-03-03T07:58:31.704Z,20.07
2023-03-03T08:01:46.723Z,23.07
2023-03-03T08:04:35.439Z,22.73
2023-03-03T08:07:09.737Z,24.87
2023-03-03T08:09:42.729Z,25.37
2023-03-03T08:12:16.711Z,25.37
2023-03-03T08:14:44.255Z,21.03
2023-03-03T08:17:37.740Z,21.60
2023-03-03T08:20:37.716Z,23.07
2023-03-03T08:23:11.663Z,24.43
2023-03-03T08:25:46.664Z,23.83
2023-03-03T08:28:20.655Z,23.90
2023-03-03T08:31:08.949Z,25.07
2023-03-03T08:33:48.735Z,24.03
2023-03-03T08:36:16.257Z,21.07
2023-03-03T08:38:50.732Z,21.43
2023-03-03T08:41:18.178Z,20.73
2023-03-03T08:43:52.687Z,20.20
2023-03-03T08:46:20.253Z,19.90
2023-03-03T08:48:54.753Z,20.77
2023-03-03T08:51:22.243Z,19.57
2023-03-03T08:53:56.669Z,20.50
2023-03-03T08:56:30.690Z,21.77
2023-03-03T08:59:04.694Z,21.07
2023-03-03T09:01:39.734Z,20.50
2023-03-03T09:04:20.732Z,21.63
2023-03-03T09:06:54.741Z,20.10
2023-03-03T09:09:28.703Z,20.40
2023-03-03T09:12:06.685Z,19.83
2023-03-03T09:14:40.692Z,19.67
2023-03-03T09:17:23.054Z,20.47
2023-03-03T09:19:57.726Z,19.20
2023-03-03T09:22:27.979Z,20.10
2023-03-03T09:25:05.706Z,19.60
2023-03-03T09:27:37.976Z,20.27
2023-03-03T09:30:45.701Z,19.48
2023-03-03T09:33:31.691Z,18.33
2023-03-03T09:36:22.581Z,18.70
2023-03-03T09:38:56.705Z,19.05
2023-03-03T09:41:29.986Z,19.20
2023-03-03T09:44:23.717Z,18.95
2023-03-03T09:47:30.725Z,19.35
2023-03-03T09:50:31.717Z,18.55
2023-03-03T09:53:14.763Z,19.42
2023-03-03T09:56:27.791Z,19.95
2023-03-03T09:59:34.676Z,18.38
2023-03-03T10:02:57.815Z,18.98
2023-03-03T10:05:44.734Z,20.00
2023-03-03T10:09:01.718Z,18.35
2023-03-03T10:11:40.660Z,18.88
2023-03-03T10:14:37.736Z,19.95
2023-03-03T10:17:29.695Z,18.98
2023-03-03T10:20:49.199Z,19.67
2023-03-03T10:23:40.697Z,19.45
2023-03-03T10:26:45.237Z,18.85
2023-03-03T10:29:49.973Z,19.40
2023-03-03T10:32:28.689Z,19.85
2023-03-03T10:35:23.830Z,18.73
2023-03-03T10:38:06.688Z,19.23
2023-03-03T10:40:59.724Z,19.67
2023-03-03T10:43:47.716Z,19.70
2023-03-03T10:46:47.334Z,19.42
2023-03-03T10:49:45.717Z,19.80
2023-03-03T10:52:34.072Z,20.00
2023-03-03T10:55:36.438Z,20.67
2023-03-03T10:58:29.705Z,19.77
2023-03-03T11:01:28.820Z,21.45
2023-03-03T11:04:30.778Z,20.05
2023-03-03T11:07:26.583Z,19.85
2023-03-03T11:10:28.740Z,20.27
2023-03-03T11:13:11.250Z,20.13
2023-03-03T11:16:09.984Z,18.95
2023-03-03T11:19:01.399Z,19.23
2023-03-03T11:21:45.738Z,20.60
2023-03-03T11:24:38.807Z,19.95
2023-03-03T11:27:30.707Z,18.58
2023-03-03T11:30:28.735Z,19.40
2023-03-03T11:33:26.736Z,19.73
2023-03-03T11:36:35.210Z,20.17
2023-03-03T11:39:11.766Z,19.40
2023-03-03T11:41:48.061Z,20.38
2023-03-03T11:44:59.761Z,20.42
2023-03-03T11:48:04.746Z,20.88
2023-03-03T11:50:47.762Z,19.15
2023-03-03T11:53:57.769Z,19.00
2023-03-03T11:56:34.202Z,19.52
2023-03-03T11:59:10.831Z,18.88
2023-03-03T12:01:49.154Z,20.35
2023-03-03T12:04:43.728Z,20.20
2023-03-03T12:07:43.766Z,18.63
2023-03-03T12:10:20.775Z,18.88
2023-03-03T12:13:09.738Z,19.55
2023-03-03T12:16:12.312Z,19.70
2023-03-03T12:22:05.771Z,18.45
2023-03-03T12:25:00.766Z,19.10
2023-03-03T12:27:42.492Z,19.88
2023-03-03T12:30:30.761Z,17.88
2023-03-03T12:33:17.743Z,18.90
2023-03-03T12:36:00.748Z,19.33
2023-03-03T12:38:46.640Z,18.50
2023-03-03T12:41:29.760Z,18.95
2023-03-03T12:44:05.260Z,18.80
2023-03-03T12:47:26.758Z,19.10
2023-03-03T12:50:19.914Z,19.08
2023-03-03T12:53:18.780Z,19.90
2023-03-03T12:55:59.325Z,18.88
2023-03-03T12:59:02.786Z,19.10
2023-03-03T13:02:01.772Z,17.65
2023-03-03T13:04:59.283Z,19.35
2023-03-03T13:07:54.733Z,17.88
2023-03-03T13:10:42.813Z,18.70
2023-03-03T13:13:59.750Z,19.38
2023-03-03T13:16:47.772Z,18.60
2023-03-03T13:19:32.749Z,19.10
2023-03-03T13:22:08.582Z,18.67
2023-03-03T13:25:00.738Z,19.48
2023-03-03T13:27:46.748Z,19.98
2023-03-03T13:30:22.981Z,19.77
2023-03-03T13:33:28.788Z,19.17
2023-03-03T13:36:04.831Z,20.05
2023-03-03T13:38:45.739Z,20.15
2023-03-03T13:41:40.074Z,20.30
2023-03-03T13:44:21.845Z,18.45
2023-03-03T13:47:11.753Z,18.92
2023-03-03T13:50:19.771Z,18.40
2023-03-03T13:53:09.219Z,19.58
2023-03-03T13:55:50.850Z,17.90
2023-03-03T13:58:25.742Z,19.08
2023-03-03T14:01:08.855Z,18.25
2023-03-03T14:04:43.800Z,19.55
2023-03-03T14:07:22.888Z,19.30
2023-03-03T14:10:08.759Z,19.33
2023-03-03T14:12:58.040Z,18.45
2023-03-03T14:15:37.825Z,19.02
2023-03-03T14:18:14.023Z,18.98
2023-03-03T14:20:53.813Z,19.50
2023-03-03T14:23:33.740Z,20.45
2023-03-03T14:26:16.820Z,18.73
2023-03-03T14:28:53.801Z,20.50
2023-03-03T14:31:31.093Z,20.40
2023-03-03T14:34:28.757Z,19.48
2023-03-03T14:37:25.874Z,20.55
2023-03-03T14:40:23.797Z,20.00
2023-03-03T14:43:01.764Z,20.95
2023-03-03T14:45:36.473Z,20.55
2023-03-03T14:48:30.483Z,20.52
2023-03-03T14:51:42.016Z,20.33
2023-03-03T14:54:21.788Z,19.90
2023-03-03T14:57:18.781Z,20.92
2023-03-03T14:59:58.028Z,20.33
2023-03-03T15:02:38.782Z,20.02
2023-03-03T15:05:31.272Z,20.80
2023-03-03T15:08:11.778Z,19.60
2023-03-03T15:10:44.997Z,20.35
2023-03-03T15:13:27.785Z,21.42
2023-03-03T15:16:10.805Z,21.73
2023-03-03T15:19:20.811Z,22.27
2023-03-03T15:22:28.785Z,20.65
2023-03-03T15:25:20.913Z,21.58
2023-03-03T15:28:14.847Z,21.35
2023-03-03T15:30:52.842Z,20.60
2023-03-03T15:33:26.814Z,20.58
2023-03-03T15:36:14.770Z,20.35
2023-03-03T15:39:03.949Z,19.17
2023-03-03T15:41:51.884Z,20.35
2023-03-03T15:44:45.842Z,19.67
2023-03-03T15:47:40.792Z,21.58
2023-03-03T15:50:48.822Z,20.67
2023-03-03T15:53:23.894Z,20.52
2023-03-03T15:56:21.821Z,21.80
2023-03-03T15:58:52.245Z,20.02
2023-03-03T16:01:39.834Z,21.05
2023-03-03T16:04:28.806Z,22.13
2023-03-03T16:07:25.796Z,20.85
2023-03-03T16:10:14.472Z,21.35
2023-03-03T16:13:01.788Z,19.73
2023-03-03T16:15:37.788Z,20.77
2023-03-03T16:18:52.816Z,21.42
2023-03-03T16:21:44.816Z,19.83
2023-03-03T16:24:50.840Z,20.63
2023-03-03T16:27:58.824Z,19.63
2023-03-03T16:30:41.892Z,19.60
2023-03-03T16:33:27.052Z,21.17
2023-03-03T16:36:08.823Z,20.70
2023-03-03T16:38:44.824Z,20.60
2023-03-03T16:41:33.976Z,20.73
2023-03-03T16:44:38.073Z,20.37
2023-03-03T16:47:42.297Z,20.23
2023-03-03T16:50:43.851Z,22.87
2023-03-03T16:53:32.248Z,38.53
2023-03-03T16:56:20.775Z,36.00
2023-03-03T16:59:27.840Z,26.43
2023-03-03T17:02:23.338Z,43.43
2023-03-03T17:05:19.828Z,24.57
2023-03-03T17:08:07.802Z,23.10
2023-03-03T17:10:42.872Z,22.83
2023-03-03T17:13:37.809Z,22.17
2023-03-03T17:16:37.022Z,26.93
2023-03-03T17:19:50.787Z,23.40
2023-03-03T17:22:39.533Z,21.33
2023-03-03T17:25:27.805Z,25.13
2023-03-03T17:28:17.821Z,25.17
2023-03-03T17:31:01.974Z,21.77
2023-03-03T17:33:46.814Z,23.43
2023-03-03T17:36:28.796Z,20.67
2023-03-03T17:39:02.845Z,25.80
2023-03-03T17:41:58.800Z,22.13
2023-03-03T17:44:46.835Z,22.87
2023-03-03T17:47:59.933Z,23.83
2023-03-03T17:50:33.786Z,22.10
2023-03-03T17:53:39.056Z,24.67
2023-03-03T17:56:34.830Z,25.87
2023-03-03T17:59:20.887Z,23.33
2023-03-03T18:02:19.808Z,24.30
2023-03-03T18:05:15.823Z,24.70
2023-03-03T18:08:03.882Z,25.47
2023-03-03T18:11:03.329Z,26.50
2023-03-03T18:14:06.899Z,24.93
2023-03-03T18:16:40.511Z,24.50
2023-03-03T18:19:52.873Z,24.53
2023-03-03T18:22:48.191Z,24.10
2023-03-03T18:25:27.844Z,25.50
2023-03-03T18:28:07.873Z,23.60
2023-03-03T18:31:06.891Z,23.43
2023-03-03T18:34:08.567Z,23.67
2023-03-03T18:36:45.991Z,24.67
2023-03-03T18:39:21.828Z,26.73
2023-03-03T18:42:10.141Z,27.07
2023-03-03T18:44:43.925Z,28.37
2023-03-03T18:47:21.815Z,27.27
2023-03-03T18:50:35.817Z,25.87
2023-03-03T18:53:23.040Z,25.47
2023-03-03T18:56:08.825Z,25.37
2023-03-03T18:58:37.553Z,25.90
2023-03-03T19:01:42.960Z,23.37
2023-03-03T19:04:26.850Z,24.23
2023-03-03T19:07:21.895Z,26.00
2023-03-03T19:09:57.095Z,26.27
2023-03-03T19:13:01.815Z,25.33
2023-03-03T19:15:34.528Z,25.37
2023-03-03T19:18:28.836Z,24.70
2023-03-03T19:20:56.312Z,25.63
2023-03-03T19:23:59.895Z,24.30
2023-03-03T19:26:30.279Z,25.47
2023-03-03T19:29:09.840Z,24.67
2023-03-03T19:32:16.484Z,24.10
2023-03-03T19:35:00.833Z,25.17
2023-03-03T19:37:46.924Z,25.10
2023-03-03T19:40:40.818Z,25.03
2023-03-03T19:43:33.587Z,24.47
2023-03-03T19:46:36.923Z,23.43
2023-03-03T19:49:39.742Z,23.13
2023-03-03T19:52:39.843Z,24.63
2023-03-03T19:55:24.850Z,23.47
2023-03-03T19:58:25.116Z,23.80
2023-03-03T20:01:20.857Z,24.20
2023-03-03T20:04:09.906Z,23.23
2023-03-03T20:07:33.881Z,22.87
2023-03-03T20:10:14.811Z,22.87
2023-03-03T20:13:00.843Z,21.07
2023-03-03T20:15:56.583Z,21.57
2023-03-03T20:19:14.823Z,21.80
2023-03-03T20:22:09.100Z,20.20
2023-03-03T20:25:14.839Z,20.83
2023-03-03T20:28:06.853Z,20.57
2023-03-03T20:30:43.430Z,21.00
2023-03-03T20:33:45.814Z,20.93
2023-03-03T20:36:28.022Z,20.40
2023-03-03T20:39:15.860Z,20.20
2023-03-03T20:41:59.957Z,19.93
2023-03-03T20:44:34.809Z,19.07
2023-03-03T20:47:32.974Z,20.90
2023-03-03T20:50:23.000Z,19.53
2023-03-03T20:53:17.817Z,19.97
2023-03-03T20:56:17.926Z,22.07
2023-03-03T20:59:00.493Z,18.87
2023-03-03T21:01:53.854Z,19.50
2023-03-03T21:04:38.348Z,18.90
2023-03-03T21:07:31.868Z,19.37
2023-03-03T21:10:21.844Z,19.57
2023-03-03T21:12:55.861Z,19.43
2023-03-03T21:15:36.885Z,18.57
2023-03-03T21:18:22.429Z,20.13
2023-03-03T21:20:56.919Z,20.30
2023-03-03T21:23:24.635Z,20.27
2023-03-03T21:26:04.889Z,20.53
2023-03-03T21:28:34.418Z,20.07
2023-03-03T21:31:12.821Z,20.93
2023-03-03T21:34:09.485Z,21.37
2023-03-03T21:36:36.892Z,21.73
2023-03-03T21:39:28.913Z,22.33
2023-03-03T21:42:07.692Z,22.33
2023-03-03T21:44:55.890Z,21.17
2023-03-03T21:47:27.685Z,21.27
2023-03-03T21:50:18.888Z,22.87
2023-03-03T21:52:59.821Z,21.87
2023-03-03T21:55:33.878Z,21.90
2023-03-03T21:58:07.836Z,21.40
2023-03-03T22:00:35.185Z,21.67
2023-03-03T22:03:08.881Z,21.73
2023-03-03T22:05:42.881Z,21.03
2023-03-03T22:08:10.351Z,19.47
2023-03-03T22:10:43.855Z,21.20
2023-03-03T22:13:12.055Z,20.47
2023-03-03T22:15:45.879Z,20.10
2023-03-03T22:18:13.728Z,21.47
2023-03-03T22:20:41.290Z,20.33
2023-03-03T22:23:14.917Z,20.50
2023-03-03T22:25:42.614Z,20.90
2023-03-03T22:28:16.809Z,20.03
2023-03-03T22:30:50.881Z,19.67
2023-03-03T22:33:18.266Z,20.80
2023-03-03T22:35:51.879Z,20.30
2023-03-03T22:38:19.336Z,20.63
2023-03-03T22:40:52.838Z,20.50
2023-03-03T22:43:20.270Z,21.87
2023-03-03T22:45:53.931Z,21.00
2023-03-03T22:48:29.869Z,21.50
2023-03-03T22:51:03.869Z,20.07
2023-03-03T22:53:37.919Z,19.13
2023-03-03T22:56:05.803Z,18.87
2023-03-03T22:58:39.887Z,19.40
2023-03-03T23:01:07.272Z,20.60
2023-03-03T23:03:41.904Z,19.03
2023-03-03T23:06:22.871Z,21.07
2023-03-03T23:08:56.902Z,18.77
2023-03-03T23:11:24.794Z,19.53
2023-03-03T23:13:58.886Z,19.43
2023-03-03T23:16:26.959Z,18.93
2023-03-03T23:19:00.906Z,19.60
2023-03-03T23:21:28.345Z,18.70
2023-03-03T23:24:01.876Z,19.70
2023-03-03T23:26:35.820Z,19.40
2023-03-03T23:29:09.868Z,20.40
2023-03-03T23:31:44.880Z,20.20
2023-03-03T23:34:12.969Z,21.37
2023-03-03T23:36:46.850Z,20.60
2023-03-03T23:39:20.857Z,20.37
2023-03-03T23:41:48.159Z,19.50
2023-03-03T23:44:21.899Z,21.10
2023-03-03T23:46:49.433Z,20.17
2023-03-03T23:49:23.910Z,21.10
2023-03-03T23:51:57.852Z,21.50
2023-03-03T23:54:31.923Z,19.97
2023-03-03T23:57:05.842Z,21.83
2023-03-03T23:59:33.200Z,21.97
